Time;durP1;ratioP1;P1;durP2;ratioP2;P2;SDS_P1;SDS_P2;PMS_P1;PMS_P2;Temp;Humidity;BMP_temperature;BMP_pressure;BME280_temperature;BME280_humidity;BME280_pressure;Samples;Min_cycle;Max_cycle;Signal;HPM_P1;HPM_P2
2023/10/15 00:00:50;;;;;;;8.33;2.10;;;;;;;;;;5054947;28;20257;-60
2023/10/15 00:03:16;;;;;;;5.63;2.50;;;;;;;;;;5054383;28;20580;-60
2023/10/15 00:05:42;;;;;;;10.20;3.00;;;;;;;;;;5051370;28;20303;-59
2023/10/15 00:08:08;;;;;;;10.33;3.10;;;;;;;;;;5054759;28;20216;-60
2023/10/15 00:10:37;;;;;;;10.87;2.60;;;;;;;;;;5054802;28;20254;-60
2023/10/15 00:13:04;;;;;;;9.40;2.57;;;;;;;;;;5054923;28;20250;-59
2023/10/15 00:15:30;;;;;;;5.27;2.50;;;;;;;;;;5053029;28;20200;-60
2023/10/15 00:17:59;;;;;;;5.70;2.20;;;;;;;;;;5034976;28;20197;-59
2023/10/15 00:20:31;;;;;;;7.47;2.03;;;;;;;;;;5034745;28;20259;-59
2023/10/15 00:22:58;;;;;;;6.70;2.53;;;;;;;;;;5034794;28;20201;-59
2023/10/15 00:25:24;;;;;;;12.57;3.13;;;;;;;;;;5034585;28;20224;-59
2023/10/15 00:27:57;;;;;;;9.00;2.50;;;;;;;;;;5034753;28;20350;-59
2023/10/15 00:30:31;;;;;;;7.30;2.30;;;;;;;;;;5034380;28;20201;-60
2023/10/15 00:32:59;;;;;;;7.47;2.90;;;;;;;;;;5034710;28;20254;-60
2023/10/15 00:35:28;;;;;;;9.47;3.83;;;;;;;;;;5034419;28;20636;-60
2023/10/15 00:37:57;;;;;;;7.33;2.37;;;;;;;;;;5034203;28;20569;-59
2023/10/15 00:40:23;;;;;;;6.70;2.50;;;;;;;;;;5034396;28;20726;-60
2023/10/15 00:42:49;;;;;;;7.53;2.53;;;;;;;;;;5034690;28;20204;-60
2023/10/15 00:45:19;;;;;;;7.93;2.67;;;;;;;;;;5034350;28;20197;-59
2023/10/15 00:50:49;;;;;;;7.60;2.70;;;;;;;;;;5032112;28;20246;-60
2023/10/15 00:53:23;;;;;;;12.00;2.90;;;;;;;;;;5033280;28;20204;-60
2023/10/15 00:55:50;;;;;;;8.10;2.90;;;;;;;;;;5034349;28;20690;-59
2023/10/15 00:58:22;;;;;;;7.87;2.27;;;;;;;;;;5033824;28;20193;-59
2023/10/15 01:03:19;;;;;;;7.17;2.90;;;;;;;;;;5033767;28;20280;-60
2023/10/15 01:05:53;;;;;;;11.63;2.80;;;;;;;;;;5033890;28;20620;-59
2023/10/15 01:08:25;;;;;;;10.80;3.10;;;;;;;;;;5033969;28;20227;-60
2023/10/15 01:11:08;;;;;;;11.40;2.53;;;;;;;;;;5033097;28;20204;-59
2023/10/15 01:13:34;;;;;;;8.43;2.50;;;;;;;;;;5033594;28;20227;-59
2023/10/15 01:16:04;;;;;;;7.13;2.73;;;;;;;;;;5033573;28;20663;-59
2023/10/15 01:18:30;;;;;;;10.30;2.77;;;;;;;;;;5033585;28;20209;-59
2023/10/15 01:21:01;;;;;;;7.87;2.57;;;;;;;;;;5033641;28;20323;-60
2023/10/15 01:23:28;;;;;;;8.60;3.10;;;;;;;;;;5033377;28;20208;-59
2023/10/15 01:25:57;;;;;;;7.20;2.40;;;;;;;;;;5033459;28;20246;-60
2023/10/15 01:28:30;;;;;;;12.83;2.73;;;;;;;;;;5033079;28;20220;-60
2023/10/15 01:31:00;;;;;;;9.07;2.77;;;;;;;;;;5033437;28;20200;-59
2023/10/15 01:33:29;;;;;;;7.47;2.30;;;;;;;;;;5033253;28;20276;-59
2023/10/15 01:35:58;;;;;;;8.30;2.50;;;;;;;;;;5033296;28;20224;-59
2023/10/15 01:38:27;;;;;;;9.90;2.43;;;;;;;;;;5032883;28;20207;-59
2023/10/15 01:40:56;;;;;;;6.00;2.43;;;;;;;;;;5032833;28;20255;-58
2023/10/15 01:43:24;;;;;;;6.83;2.37;;;;;;;;;;5032933;28;20205;-60
2023/10/15 01:45:56;;;;;;;7.10;2.43;;;;;;;;;;5033052;28;20280;-60
2023/10/15 01:48:30;;;;;;;5.80;2.23;;;;;;;;;;5033022;28;20221;-59
2023/10/15 01:51:04;;;;;;;6.97;2.40;;;;;;;;;;5033115;28;20207;-60
2023/10/15 01:53:34;;;;;;;11.10;2.40;;;;;;;;;;5033079;28;20281;-60
2023/10/15 01:56:02;;;;;;;8.07;2.17;;;;;;;;;;5033024;28;20279;-59
2023/10/15 01:58:32;;;;;;;6.43;2.00;;;;;;;;;;5032744;28;20197;-59
2023/10/15 02:01:09;;;;;;;8.50;2.20;;;;;;;;;;5029376;28;20200;-59
2023/10/15 02:03:37;;;;;;;7.07;2.27;;;;;;;;;;5032570;28;20207;-59
2023/10/15 02:06:09;;;;;;;7.60;2.10;;;;;;;;;;5032640;28;20711;-59
2023/10/15 02:08:39;;;;;;;6.13;1.93;;;;;;;;;;5032523;28;20213;-59
2023/10/15 02:11:15;;;;;;;6.10;2.50;;;;;;;;;;5032776;28;20205;-60
2023/10/15 02:13:45;;;;;;;5.63;2.10;;;;;;;;;;5032592;28;20210;-59
2023/10/15 02:16:15;;;;;;;5.07;2.50;;;;;;;;;;5032616;28;20416;-59
2023/10/15 02:18:44;;;;;;;9.87;2.50;;;;;;;;;;5032578;28;20561;-59
2023/10/15 02:21:10;;;;;;;10.93;2.20;;;;;;;;;;5032003;28;20220;-59
2023/10/15 02:23:36;;;;;;;10.20;2.17;;;;;;;;;;5031991;28;20192;-59
2023/10/15 02:26:03;;;;;;;4.53;2.00;;;;;;;;;;5032362;28;20200;-59
2023/10/15 02:28:36;;;;;;;7.03;1.83;;;;;;;;;;5032142;28;20296;-59
2023/10/15 02:31:14;;;;;;;6.73;2.20;;;;;;;;;;5032629;28;20204;-59
2023/10/15 02:33:40;;;;;;;6.47;1.90;;;;;;;;;;5032415;28;20695;-59
2023/10/15 02:36:09;;;;;;;8.80;2.50;;;;;;;;;;5030554;28;20730;-59
2023/10/15 02:38:52;;;;;;;7.33;2.17;;;;;;;;;;5032067;28;20196;-59
2023/10/15 02:41:18;;;;;;;6.33;2.10;;;;;;;;;;5030748;28;20231;-59
2023/10/15 02:43:56;;;;;;;5.13;2.07;;;;;;;;;;5031674;28;20225;-59
2023/10/15 02:46:35;;;;;;;6.77;2.00;;;;;;;;;;5032109;28;20200;-59
2023/10/15 02:49:03;;;;;;;5.57;2.30;;;;;;;;;;5032217;28;20270;-59
2023/10/15 02:51:35;;;;;;;5.77;2.10;;;;;;;;;;5032104;28;20205;-59
2023/10/15 02:56:57;;;;;;;5.87;1.97;;;;;;;;;;5028896;28;20247;-59
2023/10/15 02:59:23;;;;;;;4.90;1.87;;;;;;;;;;5031953;28;20193;-60
2023/10/15 03:01:56;;;;;;;7.33;1.97;;;;;;;;;;5028698;28;20200;-59
2023/10/15 03:04:37;;;;;;;4.37;1.90;;;;;;;;;;5030098;28;20208;-59
2023/10/15 03:07:46;;;;;;;4.70;1.90;;;;;;;;;;5031862;28;20201;-59
2023/10/15 03:09:56;;;;;;;4.67;1.87;;;;;;;;;;5029481;28;20311;-60
2023/10/15 03:12:23;;;;;;;3.17;1.90;;;;;;;;;;5024916;28;20259;-59
2023/10/15 03:14:49;;;;;;;4.73;1.93;;;;;;;;;;5030279;28;20274;-59
2023/10/15 03:17:24;;;;;;;2.80;1.40;;;;;;;;;;5023205;28;20679;-59
2023/10/15 03:19:52;;;;;;;2.83;1.27;;;;;;;;;;5030242;28;20200;-59
2023/10/15 03:22:18;;;;;;;3.13;1.43;;;;;;;;;;5024990;28;20291;-59
2023/10/15 03:24:44;;;;;;;1.67;1.37;;;;;;;;;;5026885;28;20204;-59
2023/10/15 03:27:16;;;;;;;3.90;1.43;;;;;;;;;;5026518;28;20232;-60
2023/10/15 03:29:42;;;;;;;3.13;1.37;;;;;;;;;;5026279;28;20232;-60
2023/10/15 03:32:12;;;;;;;5.10;1.67;;;;;;;;;;5029970;28;20656;-59
2023/10/15 03:34:47;;;;;;;4.63;1.60;;;;;;;;;;5035187;28;20235;-59
2023/10/15 03:37:14;;;;;;;3.03;1.50;;;;;;;;;;5035720;28;20231;-60
2023/10/15 03:42:09;;;;;;;5.93;1.57;;;;;;;;;;5035767;28;20197;-59
2023/10/15 03:44:36;;;;;;;3.20;1.60;;;;;;;;;;5035459;28;20629;-60
2023/10/15 03:47:05;;;;;;;2.53;1.57;;;;;;;;;;5035584;28;20196;-60
2023/10/15 03:49:32;;;;;;;3.73;1.70;;;;;;;;;;5035230;28;20232;-60
2023/10/15 03:51:59;;;;;;;2.33;1.23;;;;;;;;;;5035340;28;20588;-60
2023/10/15 03:54:25;;;;;;;2.40;1.30;;;;;;;;;;5035205;28;20201;-60
2023/10/15 03:56:52;;;;;;;3.33;1.60;;;;;;;;;;5030107;28;20263;-61
2023/10/15 03:59:18;;;;;;;5.37;2.17;;;;;;;;;;5031643;28;20271;-60
2023/10/15 04:01:47;;;;;;;1.37;1.27;;;;;;;;;;5026294;28;20542;-60
2023/10/15 04:04:16;;;;;;;2.80;1.43;;;;;;;;;;5028041;28;20201;-60
2023/10/15 04:06:45;;;;;;;1.23;1.00;;;;;;;;;;5027806;28;20684;-58
2023/10/15 04:09:15;;;;;;;2.27;1.17;;;;;;;;;;5027788;28;20642;-60
2023/10/15 04:11:44;;;;;;;1.70;1.40;;;;;;;;;;5027883;28;20280;-57
2023/10/15 04:14:18;;;;;;;1.00;0.90;;;;;;;;;;5029711;28;20271;-58
2023/10/15 04:16:44;;;;;;;1.53;1.10;;;;;;;;;;5024476;28;20211;-59
2023/10/15 04:19:10;;;;;;;4.87;1.40;;;;;;;;;;5025779;28;20196;-59
2023/10/15 04:21:40;;;;;;;3.87;1.10;;;;;;;;;;5025546;28;20549;-59
2023/10/15 04:24:06;;;;;;;2.43;1.20;;;;;;;;;;5029586;28;20275;-59
2023/10/15 04:26:40;;;;;;;1.60;1.20;;;;;;;;;;5027860;28;20201;-59
2023/10/15 04:29:18;;;;;;;2.17;1.30;;;;;;;;;;5025861;28;20236;-59
2023/10/15 04:31:45;;;;;;;1.83;1.17;;;;;;;;;;5022198;28;20722;-59
2023/10/15 04:34:18;;;;;;;2.07;1.20;;;;;;;;;;5026371;28;20205;-59
2023/10/15 04:36:44;;;;;;;1.93;0.87;;;;;;;;;;5025905;28;20228;-59
2023/10/15 04:39:13;;;;;;;1.43;1.20;;;;;;;;;;5027165;28;20673;-59
2023/10/15 04:41:40;;;;;;;1.00;1.00;;;;;;;;;;5029174;28;20208;-60
2023/10/15 04:44:20;;;;;;;1.97;1.27;;;;;;;;;;5028569;28;20672;-59
2023/10/15 04:46:54;;;;;;;3.10;1.30;;;;;;;;;;5024320;28;20376;-59
2023/10/15 04:49:20;;;;;;;1.00;0.93;;;;;;;;;;5025510;28;20251;-60
2023/10/15 04:51:46;;;;;;;1.30;1.20;;;;;;;;;;5027098;28;20211;-59
2023/10/15 04:54:12;;;;;;;1.77;1.03;;;;;;;;;;5026609;28;20570;-60
2023/10/15 04:56:38;;;;;;;2.60;1.00;;;;;;;;;;5023321;28;20694;-59
2023/10/15 04:59:06;;;;;;;1.57;1.00;;;;;;;;;;5027367;28;20250;-60
2023/10/15 05:01:33;;;;;;;1.87;1.10;;;;;;;;;;5021957;28;20258;-60
2023/10/15 05:04:00;;;;;;;1.00;0.90;;;;;;;;;;5025462;28;20284;-59
2023/10/15 05:06:26;;;;;;;2.53;1.07;;;;;;;;;;5025317;28;20205;-59
2023/10/15 05:08:53;;;;;;;1.83;1.00;;;;;;;;;;5025383;28;20315;-60
2023/10/15 05:11:23;;;;;;;1.53;1.00;;;;;;;;;;5026858;28;20208;-59
2023/10/15 05:13:50;;;;;;;2.47;1.30;;;;;;;;;;5025276;28;20200;-59
2023/10/15 05:16:18;;;;;;;1.70;1.33;;;;;;;;;;5025212;28;20323;-59
2023/10/15 05:18:44;;;;;;;1.27;1.17;;;;;;;;;;5023130;28;20684;-59
2023/10/15 05:21:13;;;;;;;2.73;1.40;;;;;;;;;;5026783;28;20200;-60
2023/10/15 05:23:39;;;;;;;2.77;1.10;;;;;;;;;;5021444;28;20291;-60
2023/10/15 05:26:05;;;;;;;3.27;1.20;;;;;;;;;;5025113;28;20197;-60
2023/10/15 05:28:31;;;;;;;1.83;1.20;;;;;;;;;;5024793;28;20216;-60
2023/10/15 05:31:01;;;;;;;2.67;1.20;;;;;;;;;;5023137;28;20217;-60
2023/10/15 05:33:28;;;;;;;5.40;1.40;;;;;;;;;;5022890;28;20227;-60
2023/10/15 05:35:56;;;;;;;1.70;1.13;;;;;;;;;;5024869;28;20589;-60
2023/10/15 05:38:22;;;;;;;2.73;1.23;;;;;;;;;;5024236;28;20197;-60
2023/10/15 05:40:57;;;;;;;2.00;1.20;;;;;;;;;;5024499;28;20746;-60
2023/10/15 05:43:23;;;;;;;3.10;1.50;;;;;;;;;;5024471;28;20204;-60
2023/10/15 05:45:49;;;;;;;2.90;1.23;;;;;;;;;;5026565;28;20284;-60
2023/10/15 05:48:17;;;;;;;1.37;1.10;;;;;;;;;;5020959;28;20259;-60
2023/10/15 05:50:48;;;;;;;1.83;1.30;;;;;;;;;;5027530;28;20201;-60
2023/10/15 05:53:14;;;;;;;2.90;1.33;;;;;;;;;;5020509;28;20706;-60
2023/10/15 05:55:40;;;;;;;3.43;1.30;;;;;;;;;;5023919;28;20292;-60
2023/10/15 05:58:08;;;;;;;4.20;1.57;;;;;;;;;;5023983;28;20244;-59
2023/10/15 06:00:39;;;;;;;4.47;1.40;;;;;;;;;;5024122;28;20201;-60
2023/10/15 06:03:05;;;;;;;4.10;1.27;;;;;;;;;;5025491;28;20201;-59
2023/10/15 06:05:31;;;;;;;2.47;1.20;;;;;;;;;;5025559;28;20192;-60
2023/10/15 06:07:58;;;;;;;2.20;1.27;;;;;;;;;;5021854;28;20258;-60
2023/10/15 06:10:24;;;;;;;2.63;1.40;;;;;;;;;;5027382;28;20791;-60
2023/10/15 06:12:50;;;;;;;1.20;1.10;;;;;;;;;;5027458;28;20220;-60
2023/10/15 06:15:16;;;;;;;3.27;1.50;;;;;;;;;;5024074;28;20667;-60
2023/10/15 06:17:43;;;;;;;3.67;1.50;;;;;;;;;;5025556;28;20229;-60
2023/10/15 06:20:12;;;;;;;4.33;1.63;;;;;;;;;;5038568;28;20192;-60
2023/10/15 06:22:38;;;;;;;2.90;1.63;;;;;;;;;;5043645;28;20581;-60
2023/10/15 06:25:08;;;;;;;2.63;1.00;;;;;;;;;;5049049;28;20207;-60
2023/10/15 06:27:35;;;;;;;2.53;1.37;;;;;;;;;;5045540;28;20243;-60
2023/10/15 06:30:02;;;;;;;4.47;1.23;;;;;;;;;;5045411;28;20235;-60
2023/10/15 06:32:28;;;;;;;3.07;1.20;;;;;;;;;;5037618;28;20202;-59
2023/10/15 06:34:54;;;;;;;4.13;1.30;;;;;;;;;;5047019;28;20480;-60
2023/10/15 06:37:20;;;;;;;2.13;1.20;;;;;;;;;;5045451;28;20211;-60
2023/10/15 06:39:46;;;;;;;1.40;1.20;;;;;;;;;;5045147;28;20228;-60
2023/10/15 06:42:14;;;;;;;1.47;1.30;;;;;;;;;;5046652;28;20239;-60
2023/10/15 06:44:40;;;;;;;1.87;1.20;;;;;;;;;;5048125;28;20204;-60
2023/10/15 06:47:06;;;;;;;2.47;1.20;;;;;;;;;;5043591;28;20283;-59
2023/10/15 06:49:32;;;;;;;1.43;1.20;;;;;;;;;;5046748;28;20228;-58
2023/10/15 06:51:58;;;;;;;2.13;1.30;;;;;;;;;;5041615;28;20204;-58
2023/10/15 06:54:26;;;;;;;2.43;1.47;;;;;;;;;;5045121;28;20246;-58
2023/10/15 06:56:52;;;;;;;3.73;1.23;;;;;;;;;;5046220;28;20627;-58
2023/10/15 06:59:19;;;;;;;1.23;1.13;;;;;;;;;;5052088;28;20296;-58
2023/10/15 07:01:45;;;;;;;2.80;1.30;;;;;;;;;;5041321;28;20674;-58
2023/10/15 07:04:12;;;;;;;1.90;1.20;;;;;;;;;;5041557;28;20679;-58
2023/10/15 07:06:39;;;;;;;1.77;1.47;;;;;;;;;;5041085;28;20218;-58
2023/10/15 07:09:05;;;;;;;1.90;1.27;;;;;;;;;;5045242;28;20220;-58
2023/10/15 07:11:31;;;;;;;3.17;1.40;;;;;;;;;;5046553;28;20295;-58
2023/10/15 07:13:57;;;;;;;1.63;1.20;;;;;;;;;;5041426;28;20196;-58
2023/10/15 07:16:25;;;;;;;3.37;1.30;;;;;;;;;;5046684;28;20731;-58
2023/10/15 07:19:01;;;;;;;3.47;1.30;;;;;;;;;;5046584;28;20223;-58
2023/10/15 07:21:27;;;;;;;2.03;1.30;;;;;;;;;;5040588;28;20195;-58
2023/10/15 07:23:53;;;;;;;4.17;2.60;;;;;;;;;;5041065;28;20689;-61
2023/10/15 07:26:19;;;;;;;2.17;1.47;;;;;;;;;;5046622;28;20283;-57
2023/10/15 07:28:45;;;;;;;2.43;1.43;;;;;;;;;;5048064;28;20657;-57
2023/10/15 07:31:12;;;;;;;9.47;8.20;;;;;;;;;;5042253;28;20291;-57
2023/10/15 07:33:39;;;;;;;2.63;1.60;;;;;;;;;;5046561;28;20246;-58
2023/10/15 07:36:06;;;;;;;2.73;1.40;;;;;;;;;;5043212;28;20310;-57
2023/10/15 07:38:33;;;;;;;2.40;1.30;;;;;;;;;;5043089;28;20570;-58
2023/10/15 07:40:59;;;;;;;1.60;1.27;;;;;;;;;;5042479;28;20753;-56
2023/10/15 07:43:25;;;;;;;4.03;1.50;;;;;;;;;;5042823;28;20201;-57
2023/10/15 07:45:51;;;;;;;1.87;1.67;;;;;;;;;;5044909;28;20199;-56
2023/10/15 07:48:18;;;;;;;3.33;1.47;;;;;;;;;;5039792;28;20250;-56
2023/10/15 07:50:45;;;;;;;4.87;2.07;;;;;;;;;;5049811;28;20204;-56
2023/10/15 07:53:12;;;;;;;2.63;1.30;;;;;;;;;;5044253;28;20200;-56
2023/10/15 07:55:38;;;;;;;2.90;1.50;;;;;;;;;;5043866;28;20212;-56
2023/10/15 07:58:04;;;;;;;2.80;1.30;;;;;;;;;;5051429;28;20247;-56
2023/10/15 08:00:31;;;;;;;1.53;1.20;;;;;;;;;;5046114;28;20192;-56
2023/10/15 08:02:57;;;;;;;1.63;1.20;;;;;;;;;;5046302;28;20283;-56
2023/10/15 08:05:26;;;;;;;1.50;1.17;;;;;;;;;;5046183;28;20196;-57
2023/10/15 08:07:54;;;;;;;3.03;1.40;;;;;;;;;;5047917;28;20279;-58
2023/10/15 08:10:24;;;;;;;3.03;1.30;;;;;;;;;;5044039;28;20278;-57
2023/10/15 08:12:51;;;;;;;3.43;1.30;;;;;;;;;;5042686;28;20196;-57
2023/10/15 08:15:17;;;;;;;4.60;2.30;;;;;;;;;;5049385;28;20207;-56
2023/10/15 08:17:43;;;;;;;4.37;1.80;;;;;;;;;;5047647;28;20311;-56
2023/10/15 08:20:09;;;;;;;4.93;1.47;;;;;;;;;;5043542;28;20208;-56
2023/10/15 08:22:36;;;;;;;2.23;1.37;;;;;;;;;;5045879;28;20558;-57
2023/10/15 08:25:03;;;;;;;4.97;1.60;;;;;;;;;;5049317;28;20200;-57
2023/10/15 08:27:29;;;;;;;2.20;1.30;;;;;;;;;;5047373;28;20881;-57
2023/10/15 08:29:57;;;;;;;2.40;1.43;;;;;;;;;;5049345;28;20234;-57
2023/10/15 08:32:26;;;;;;;2.80;1.27;;;;;;;;;;5051768;28;20208;-58
2023/10/15 08:34:52;;;;;;;1.90;1.40;;;;;;;;;;5054281;28;20283;-58
2023/10/15 08:37:18;;;;;;;4.17;1.60;;;;;;;;;;5054460;28;20540;-57
2023/10/15 08:39:44;;;;;;;1.60;1.50;;;;;;;;;;5054014;28;20243;-58
2023/10/15 08:42:13;;;;;;;1.93;1.23;;;;;;;;;;5054284;28;20195;-58
2023/10/15 08:44:42;;;;;;;4.23;2.33;;;;;;;;;;5054299;28;20204;-57
2023/10/15 08:47:10;;;;;;;3.50;1.50;;;;;;;;;;5054428;28;20246;-58
2023/10/15 08:49:36;;;;;;;2.30;1.40;;;;;;;;;;5054139;28;20228;-58
2023/10/15 08:52:06;;;;;;;6.50;1.60;;;;;;;;;;5054109;28;20625;-57
2023/10/15 08:54:38;;;;;;;4.40;2.07;;;;;;;;;;5054166;28;20666;-58
2023/10/15 08:57:06;;;;;;;3.17;1.27;;;;;;;;;;5054221;28;20231;-58
2023/10/15 08:59:34;;;;;;;2.33;1.20;;;;;;;;;;5054110;28;20609;-58
2023/10/15 09:02:00;;;;;;;3.27;1.50;;;;;;;;;;5054275;28;20561;-59
2023/10/15 09:04:27;;;;;;;1.47;1.20;;;;;;;;;;5054008;28;20235;-58
2023/10/15 09:06:54;;;;;;;2.23;1.20;;;;;;;;;;5053905;28;20220;-59
2023/10/15 09:09:20;;;;;;;1.83;1.00;;;;;;;;;;5054071;28;20220;-59
2023/10/15 09:11:46;;;;;;;4.93;1.30;;;;;;;;;;5053690;28;20235;-59
2023/10/15 09:14:13;;;;;;;1.87;1.23;;;;;;;;;;5053865;28;20586;-59
2023/10/15 09:16:46;;;;;;;2.60;1.30;;;;;;;;;;5053560;28;20211;-58
2023/10/15 09:19:12;;;;;;;5.27;1.50;;;;;;;;;;5053565;28;20231;-59
2023/10/15 09:21:38;;;;;;;3.77;1.37;;;;;;;;;;5053521;28;20196;-59
2023/10/15 09:24:06;;;;;;;2.27;1.30;;;;;;;;;;5053763;28;20245;-59
2023/10/15 09:26:32;;;;;;;1.97;1.20;;;;;;;;;;5053448;28;20275;-59
2023/10/15 09:28:58;;;;;;;2.17;1.20;;;;;;;;;;5053314;28;20223;-59
2023/10/15 09:31:25;;;;;;;2.30;1.40;;;;;;;;;;5052770;28;20730;-59
2023/10/15 09:33:52;;;;;;;2.40;1.00;;;;;;;;;;5053196;28;20611;-59
2023/10/15 09:36:18;;;;;;;2.63;1.33;;;;;;;;;;5049321;28;20274;-59
2023/10/15 09:38:45;;;;;;;2.97;1.20;;;;;;;;;;5052599;28;20196;-59
2023/10/15 09:41:12;;;;;;;2.80;1.37;;;;;;;;;;5048970;28;20236;-58
2023/10/15 09:43:38;;;;;;;3.83;1.40;;;;;;;;;;5052349;28;20561;-59
2023/10/15 09:46:05;;;;;;;3.13;1.40;;;;;;;;;;5052818;28;20658;-59
2023/10/15 09:48:36;;;;;;;3.10;1.40;;;;;;;;;;5052437;28;20203;-60
2023/10/15 09:51:04;;;;;;;2.67;1.50;;;;;;;;;;5053003;28;20619;-59
2023/10/15 09:53:33;;;;;;;4.17;1.50;;;;;;;;;;5052514;28;20569;-59
2023/10/15 09:56:07;;;;;;;2.83;1.20;;;;;;;;;;5052340;28;20557;-59
2023/10/15 09:58:34;;;;;;;3.17;1.53;;;;;;;;;;5052424;28;20200;-59
2023/10/15 10:01:08;;;;;;;1.83;1.20;;;;;;;;;;5052338;28;20211;-60
2023/10/15 10:03:47;;;;;;;2.70;1.40;;;;;;;;;;5050542;28;20200;-59
2023/10/15 10:06:22;;;;;;;3.33;2.07;;;;;;;;;;5052631;28;20204;-59
2023/10/15 10:08:58;;;;;;;8.33;6.33;;;;;;;;;;5052631;28;20238;-59
2023/10/15 10:11:34;;;;;;;7.60;6.03;;;;;;;;;;5052484;28;20650;-59
2023/10/15 10:14:15;;;;;;;7.33;5.37;;;;;;;;;;5051414;28;20203;-59
2023/10/15 10:16:42;;;;;;;14.57;11.47;;;;;;;;;;5052385;28;20196;-59
2023/10/15 10:19:08;;;;;;;10.20;9.17;;;;;;;;;;5052348;28;20200;-58
2023/10/15 10:21:36;;;;;;;11.47;10.37;;;;;;;;;;5052325;28;20223;-56
2023/10/15 10:24:08;;;;;;;18.40;14.93;;;;;;;;;;5052319;28;20675;-57
2023/10/15 10:26:36;;;;;;;14.13;12.63;;;;;;;;;;5052326;28;20200;-57
2023/10/15 10:29:02;;;;;;;2.67;1.60;;;;;;;;;;5045873;28;20707;-58
2023/10/15 10:31:31;;;;;;;2.97;1.60;;;;;;;;;;5028835;28;20675;-57
2023/10/15 10:34:01;;;;;;;3.30;2.20;;;;;;;;;;5032510;28;20212;-58
2023/10/15 10:36:30;;;;;;;4.30;2.77;;;;;;;;;;5032402;28;20216;-58
2023/10/15 10:38:59;;;;;;;11.73;10.60;;;;;;;;;;5032020;28;20341;-58
2023/10/15 10:41:34;;;;;;;5.93;3.90;;;;;;;;;;5030594;28;20342;-57
2023/10/15 10:44:00;;;;;;;31.37;21.40;;;;;;;;;;5031432;28;20207;-58
2023/10/15 10:46:26;;;;;;;7.47;4.60;;;;;;;;;;5032159;28;20200;-58
2023/10/15 10:49:05;;;;;;;2.97;1.43;;;;;;;;;;5031869;28;20234;-58
2023/10/15 10:51:33;;;;;;;4.60;2.67;;;;;;;;;;5031976;28;20200;-58
2023/10/15 10:54:18;;;;;;;3.33;1.60;;;;;;;;;;5031923;28;20284;-58
2023/10/15 10:57:06;;;;;;;3.40;1.83;;;;;;;;;;5031605;28;20250;-58
2023/10/15 10:59:33;;;;;;;1.60;1.10;;;;;;;;;;5031641;28;20288;-58
2023/10/15 11:02:00;;;;;;;2.20;1.17;;;;;;;;;;5031619;28;20612;-58
2023/10/15 11:04:26;;;;;;;1.57;1.00;;;;;;;;;;5026693;28;20671;-59
2023/10/15 11:06:52;;;;;;;2.13;0.90;;;;;;;;;;5024315;28;20197;-56
2023/10/15 11:09:25;;;;;;;1.43;0.90;;;;;;;;;;5030006;28;20338;-56
2023/10/15 11:11:52;;;;;;;2.03;1.10;;;;;;;;;;5025246;28;20216;-59
2023/10/15 11:14:23;;;;;;;2.00;0.90;;;;;;;;;;5025897;28;20629;-56
2023/10/15 11:16:50;;;;;;;0.90;0.70;;;;;;;;;;5025989;28;20548;-59
2023/10/15 11:19:17;;;;;;;2.07;1.10;;;;;;;;;;5031409;28;20280;-57
2023/10/15 11:21:43;;;;;;;1.17;1.00;;;;;;;;;;5028148;28;20200;-59
2023/10/15 11:24:09;;;;;;;1.43;0.77;;;;;;;;;;5026544;28;20200;-59
2023/10/15 11:26:35;;;;;;;1.87;1.00;;;;;;;;;;5025639;28;20607;-59
2023/10/15 11:29:01;;;;;;;1.03;0.83;;;;;;;;;;5028165;28;20224;-59
2023/10/15 11:31:29;;;;;;;0.97;0.73;;;;;;;;;;5027944;28;20197;-59
2023/10/15 11:33:55;;;;;;;1.30;0.70;;;;;;;;;;5022721;28;20237;-57
2023/10/15 11:36:23;;;;;;;1.57;1.37;;;;;;;;;;5024569;28;20718;-59
2023/10/15 11:38:51;;;;;;;1.80;0.87;;;;;;;;;;5026017;28;20663;-59
2023/10/15 11:41:18;;;;;;;3.23;2.37;;;;;;;;;;5026658;28;20706;-59
2023/10/15 11:43:44;;;;;;;7.97;7.17;;;;;;;;;;5040274;28;20220;-57
2023/10/15 11:46:10;;;;;;;2.93;1.30;;;;;;;;;;5042928;28;20279;-58
2023/10/15 11:48:38;;;;;;;1.73;1.10;;;;;;;;;;5046036;28;20204;-58
2023/10/15 11:51:07;;;;;;;1.67;1.30;;;;;;;;;;5044480;28;20204;-58
2023/10/15 11:53:33;;;;;;;1.53;0.90;;;;;;;;;;5044351;28;20200;-58
2023/10/15 11:56:02;;;;;;;1.73;0.90;;;;;;;;;;5054547;28;20232;-58
2023/10/15 11:58:32;;;;;;;2.60;1.30;;;;;;;;;;5053304;28;20196;-59
2023/10/15 12:00:58;;;;;;;1.57;0.90;;;;;;;;;;5049341;28;20192;-59
2023/10/15 12:03:25;;;;;;;1.30;1.00;;;;;;;;;;5049340;28;20203;-59
2023/10/15 12:05:52;;;;;;;2.10;1.10;;;;;;;;;;5048577;28;20204;-59
2023/10/15 12:08:21;;;;;;;1.07;0.87;;;;;;;;;;5049965;28;20212;-59
2023/10/15 12:10:48;;;;;;;1.03;0.90;;;;;;;;;;5048164;28;20752;-58
2023/10/15 12:13:14;;;;;;;3.47;0.93;;;;;;;;;;5041468;28;20251;-59
2023/10/15 12:15:40;;;;;;;2.67;1.00;;;;;;;;;;5045296;28;20637;-58
2023/10/15 12:18:06;;;;;;;1.43;0.90;;;;;;;;;;5052737;28;20279;-58
2023/10/15 12:20:32;;;;;;;2.43;1.07;;;;;;;;;;5048988;28;20220;-58
2023/10/15 12:23:00;;;;;;;4.77;3.93;;;;;;;;;;5052423;28;20228;-58
2023/10/15 12:25:26;;;;;;;40.83;26.40;;;;;;;;;;5047683;28;20295;-59
2023/10/15 12:27:52;;;;;;;12.97;7.83;;;;;;;;;;5049249;28;20732;-59
2023/10/15 12:33:15;;;;;;;7.80;5.17;;;;;;;;;;5047348;28;20212;-58
2023/10/15 12:35:43;;;;;;;19.17;11.20;;;;;;;;;;5051866;28;20289;-59
2023/10/15 12:38:16;;;;;;;13.57;9.53;;;;;;;;;;5052031;28;20205;-59
2023/10/15 12:40:45;;;;;;;48.50;36.20;;;;;;;;;;5050724;28;20236;-58
2023/10/15 12:43:11;;;;;;;17.00;12.97;;;;;;;;;;5047153;28;20675;-59
2023/10/15 12:45:37;;;;;;;78.13;56.77;;;;;;;;;;5051504;28;20208;-59
2023/10/15 12:48:04;;;;;;;26.83;20.67;;;;;;;;;;5047137;28;20200;-60
2023/10/15 12:50:31;;;;;;;11.73;8.57;;;;;;;;;;5047503;28;20224;-59
2023/10/15 12:52:58;;;;;;;9.80;7.63;;;;;;;;;;5046401;28;20205;-58
2023/10/15 12:55:25;;;;;;;8.97;6.53;;;;;;;;;;5048124;28;20643;-58
2023/10/15 12:57:51;;;;;;;2.37;1.33;;;;;;;;;;5051543;28;20208;-58
2023/10/15 13:00:18;;;;;;;6.20;3.40;;;;;;;;;;5049851;28;20647;-58
2023/10/15 13:02:44;;;;;;;5.70;3.97;;;;;;;;;;5051459;28;20670;-59
2023/10/15 13:05:13;;;;;;;6.80;4.80;;;;;;;;;;5051376;28;20192;-58
2023/10/15 13:07:39;;;;;;;9.10;6.67;;;;;;;;;;5049516;28;20200;-58
2023/10/15 13:10:07;;;;;;;2.87;1.80;;;;;;;;;;5045825;28;20585;-59
2023/10/15 13:12:35;;;;;;;9.13;8.23;;;;;;;;;;5051496;28;20204;-58
2023/10/15 13:15:01;;;;;;;3.13;2.70;;;;;;;;;;5049008;28;20215;-58
2023/10/15 13:17:27;;;;;;;1.53;1.20;;;;;;;;;;5047519;28;20214;-58
2023/10/15 13:19:53;;;;;;;2.70;1.80;;;;;;;;;;5047698;28;20201;-59
2023/10/15 13:22:23;;;;;;;2.00;1.03;;;;;;;;;;5048118;28;20216;-58
2023/10/15 13:24:49;;;;;;;2.37;1.03;;;;;;;;;;5052467;28;20724;-58
2023/10/15 13:27:15;;;;;;;1.83;0.97;;;;;;;;;;5052482;28;20655;-59
2023/10/15 13:29:42;;;;;;;1.77;1.03;;;;;;;;;;5030973;28;20231;-58
2023/10/15 13:32:09;;;;;;;1.80;0.97;;;;;;;;;;5027396;28;20213;-58
2023/10/15 13:34:36;;;;;;;1.77;1.10;;;;;;;;;;5032825;28;20255;-58
2023/10/15 13:37:03;;;;;;;1.33;1.00;;;;;;;;;;5031591;28;20217;-58
2023/10/15 13:39:32;;;;;;;2.10;0.97;;;;;;;;;;5027930;28;20243;-58
2023/10/15 13:41:58;;;;;;;1.50;0.90;;;;;;;;;;5027565;28;20281;-58
2023/10/15 13:44:26;;;;;;;1.53;1.10;;;;;;;;;;5026592;28;20224;-58
2023/10/15 13:46:53;;;;;;;1.93;0.90;;;;;;;;;;5028890;28;20220;-58
2023/10/15 13:49:19;;;;;;;1.47;0.87;;;;;;;;;;5031016;28;20266;-59
2023/10/15 13:51:46;;;;;;;1.40;0.93;;;;;;;;;;5028833;28;20615;-59
2023/10/15 13:54:12;;;;;;;3.30;1.13;;;;;;;;;;5030858;28;20286;-56
2023/10/15 13:56:42;;;;;;;1.60;1.00;;;;;;;;;;5043131;28;20194;-58
2023/10/15 13:59:09;;;;;;;1.60;0.83;;;;;;;;;;5046942;28;20224;-58
2023/10/15 14:01:37;;;;;;;4.47;1.37;;;;;;;;;;5050868;28;20196;-57
2023/10/15 14:04:05;;;;;;;3.73;1.20;;;;;;;;;;5050916;28;20212;-58
2023/10/15 14:06:31;;;;;;;3.17;1.20;;;;;;;;;;5052460;28;20674;-57
2023/10/15 14:08:58;;;;;;;2.13;1.13;;;;;;;;;;5047292;28;20265;-57
2023/10/15 14:11:32;;;;;;;1.13;0.80;;;;;;;;;;5049953;28;20287;-58
2023/10/15 14:14:02;;;;;;;5.27;1.20;;;;;;;;;;5048506;28;20191;-59
2023/10/15 14:16:29;;;;;;;1.90;1.30;;;;;;;;;;5052255;28;20734;-58
2023/10/15 14:18:55;;;;;;;2.77;1.23;;;;;;;;;;5050765;28;20227;-58
2023/10/15 14:21:22;;;;;;;2.07;1.00;;;;;;;;;;5051974;28;20220;-58
2023/10/15 14:23:48;;;;;;;3.13;1.17;;;;;;;;;;5050274;28;20298;-58
2023/10/15 14:26:16;;;;;;;1.87;1.13;;;;;;;;;;5050806;28;20622;-58
2023/10/15 14:28:42;;;;;;;2.67;1.20;;;;;;;;;;5052690;28;20196;-58
2023/10/15 14:31:08;;;;;;;1.87;1.10;;;;;;;;;;5052516;28;20228;-57
2023/10/15 14:33:34;;;;;;;1.67;1.07;;;;;;;;;;5052487;28;20209;-58
2023/10/15 14:36:02;;;;;;;4.87;1.40;;;;;;;;;;5051313;28;20589;-58
2023/10/15 14:38:30;;;;;;;3.47;1.50;;;;;;;;;;5050754;28;20223;-57
2023/10/15 14:40:56;;;;;;;1.60;1.20;;;;;;;;;;5050426;28;20247;-59
2023/10/15 14:43:22;;;;;;;7.63;1.40;;;;;;;;;;5050570;28;20200;-59
2023/10/15 14:45:49;;;;;;;2.80;1.10;;;;;;;;;;5050460;28;20281;-59
2023/10/15 14:48:17;;;;;;;1.70;1.20;;;;;;;;;;5050624;28;20234;-59
2023/10/15 14:50:44;;;;;;;1.30;1.10;;;;;;;;;;5050945;28;20223;-58
2023/10/15 14:53:10;;;;;;;2.07;1.20;;;;;;;;;;5051927;28;20218;-58
2023/10/15 14:55:37;;;;;;;2.27;1.07;;;;;;;;;;5051880;28;20200;-59
2023/10/15 14:58:05;;;;;;;3.00;1.20;;;;;;;;;;5052008;28;20208;-59
2023/10/15 15:00:31;;;;;;;1.90;1.30;;;;;;;;;;5052134;28;20250;-59